createdAt,value
2023-03-13T00:01:12.458Z,97478.06
2023-03-13T00:03:45.611Z,97479.47
2023-03-13T00:06:19.187Z,97478.38
2023-03-13T00:08:53.689Z,97466.09
2023-03-13T00:11:27.828Z,97470.88
2023-03-13T00:14:05.261Z,97456.03
2023-03-13T00:16:39.596Z,97465.03
2023-03-13T00:19:13.669Z,97477.38
2023-03-13T00:21:46.699Z,97472.78
2023-03-13T00:24:21.157Z,97471.72
2023-03-13T00:26:54.162Z,97474.63
2023-03-13T00:29:27.221Z,97475.31
2023-03-13T00:32:00.442Z,97473.47
2023-03-13T00:34:33.629Z,97475.63
2023-03-13T00:37:06.689Z,97482.28
2023-03-13T00:39:41.093Z,97471.69
2023-03-13T00:42:14.117Z,97474.25
2023-03-13T00:44:47.156Z,97467.59
2023-03-13T00:47:20.281Z,97468.38
2023-03-13T00:49:53.440Z,97459.00
2023-03-13T00:52:28.080Z,97460.75
2023-03-13T00:55:02.945Z,97459.88
2023-03-13T00:57:37.481Z,97463.41
2023-03-13T01:00:12.520Z,97457.53
2023-03-13T01:02:45.665Z,97448.84
2023-03-13T01:05:18.981Z,97454.13
2023-03-13T01:07:51.982Z,97448.06
2023-03-13T01:10:26.446Z,97440.63
2023-03-13T01:13:00.107Z,97439.06
2023-03-13T01:15:37.290Z,97428.53
2023-03-13T01:18:10.417Z,97430.28
2023-03-13T01:20:43.432Z,97421.84
2023-03-13T01:23:16.730Z,97425.19
2023-03-13T01:25:51.144Z,97418.38
2023-03-13T01:28:25.434Z,97405.56
2023-03-13T01:30:58.623Z,97402.53
2023-03-13T01:33:31.713Z,97404.78
2023-03-13T01:36:06.136Z,97385.72
2023-03-13T01:38:40.110Z,97395.13
2023-03-13T01:41:14.696Z,97395.50
2023-03-13T01:43:48.406Z,97386.09
2023-03-13T01:46:24.951Z,97379.66
2023-03-13T01:49:05.677Z,97378.41
2023-03-13T01:51:42.895Z,97377.22
2023-03-13T01:54:20.671Z,97375.56
2023-03-13T01:56:59.878Z,97370.00
2023-03-13T01:59:39.369Z,97362.09
2023-03-13T02:02:13.713Z,97361.09
2023-03-13T02:04:50.435Z,97358.47
2023-03-13T02:07:29.970Z,97348.81
2023-03-13T02:10:03.260Z,97355.25
2023-03-13T02:12:40.483Z,97346.19
2023-03-13T02:15:18.040Z,97350.47
2023-03-13T02:17:52.208Z,97342.06
2023-03-13T02:20:25.707Z,97339.53
2023-03-13T02:23:04.285Z,97335.72
2023-03-13T02:25:44.241Z,97339.44
2023-03-13T02:28:21.114Z,97326.56
2023-03-13T02:30:58.688Z,97322.25
2023-03-13T02:33:36.640Z,97324.00
2023-03-13T02:36:10.435Z,97327.50
2023-03-13T02:38:49.973Z,97318.03
2023-03-13T02:41:25.982Z,97316.97
2023-03-13T02:43:59.037Z,97319.88
2023-03-13T02:46:44.981Z,97311.59
2023-03-13T02:49:24.743Z,97312.69
2023-03-13T02:52:01.070Z,97312.69
2023-03-13T02:54:37.607Z,97302.91
2023-03-13T02:57:12.078Z,97292.66
2023-03-13T02:59:45.195Z,97291.97
2023-03-13T03:02:18.338Z,97288.81
2023-03-13T03:04:51.484Z,97279.16
2023-03-13T03:07:24.556Z,97276.72
2023-03-13T03:09:57.646Z,97274.19
2023-03-13T03:12:32.566Z,97268.75
2023-03-13T03:15:06.711Z,97256.53
2023-03-13T03:17:40.831Z,97245.28
2023-03-13T03:20:14.055Z,97243.34
2023-03-13T03:22:47.064Z,97239.56
2023-03-13T03:25:20.145Z,97232.81
2023-03-13T03:27:54.518Z,97233.00
2023-03-13T03:30:27.774Z,97220.50
2023-03-13T03:33:00.815Z,97222.97
2023-03-13T03:35:38.468Z,97211.34
2023-03-13T03:38:11.620Z,97208.31
2023-03-13T03:40:44.809Z,97210.91
2023-03-13T03:43:19.245Z,97205.50
2023-03-13T03:45:52.299Z,97207.56
2023-03-13T03:48:25.426Z,97192.63
2023-03-13T03:50:58.453Z,97193.38
2023-03-13T03:53:32.379Z,97198.09
2023-03-13T03:56:06.287Z,97191.53
2023-03-13T03:58:40.753Z,97197.28
2023-03-13T04:01:13.854Z,97195.13
2023-03-13T04:03:48.390Z,97192.41
2023-03-13T04:06:21.798Z,97188.00
2023-03-13T04:08:55.508Z,97189.66
2023-03-13T04:11:28.576Z,97202.19
2023-03-13T04:14:02.992Z,97188.31
2023-03-13T04:16:36.597Z,97190.59
2023-03-13T04:19:09.613Z,97189.28
2023-03-13T04:21:42.658Z,97197.91
2023-03-13T04:24:15.686Z,97199.34
2023-03-13T04:26:48.709Z,97191.03
2023-03-13T04:29:23.141Z,97193.56
2023-03-13T04:31:56.784Z,97186.13
2023-03-13T04:34:29.897Z,97189.06
2023-03-13T04:37:03.052Z,97183.22
2023-03-13T04:39:36.187Z,97163.09
2023-03-13T04:42:11.497Z,97166.44
2023-03-13T04:44:45.951Z,97169.56
2023-03-13T04:47:18.995Z,97159.97
2023-03-13T04:49:52.225Z,97166.22
2023-03-13T04:52:25.286Z,97158.91
2023-03-13T04:54:58.435Z,97167.69
2023-03-13T04:57:31.928Z,97162.09
2023-03-13T05:00:10.203Z,97157.41
2023-03-13T05:02:43.251Z,97160.03
2023-03-13T05:05:16.493Z,97157.22
2023-03-13T05:07:49.525Z,97159.47
2023-03-13T05:10:22.832Z,97170.09
2023-03-13T05:12:55.879Z,97168.28
2023-03-13T05:15:30.349Z,97162.66
2023-03-13T05:18:03.662Z,97154.34
2023-03-13T05:20:36.798Z,97153.03
2023-03-13T05:23:09.813Z,97147.25
2023-03-13T05:25:42.964Z,97152.31
2023-03-13T05:28:16.150Z,97149.59
2023-03-13T05:30:50.681Z,97157.03
2023-03-13T05:33:23.750Z,97157.56
2023-03-13T05:35:56.832Z,97162.66
2023-03-13T05:38:29.952Z,97154.63
2023-03-13T05:41:03.040Z,97157.75
2023-03-13T05:43:36.115Z,97148.84
2023-03-13T05:46:10.515Z,97150.31
2023-03-13T05:48:45.526Z,97158.31
2023-03-13T05:51:18.632Z,97161.41
2023-03-13T05:53:51.679Z,97158.94
2023-03-13T05:56:27.907Z,97158.72
2023-03-13T05:59:53.711Z,97151.72
2023-03-13T06:02:28.775Z,97145.78
2023-03-13T06:05:01.948Z,97137.28
2023-03-13T06:07:35.025Z,97137.38
2023-03-13T06:10:09.714Z,97136.16
2023-03-13T06:12:42.740Z,97127.66
2023-03-13T06:15:15.873Z,97133.31
2023-03-13T06:17:50.643Z,97122.44
2023-03-13T06:20:23.826Z,97121.34
2023-03-13T06:22:57.064Z,97135.09
2023-03-13T06:25:30.090Z,97110.81
2023-03-13T06:28:03.175Z,97123.16
2023-03-13T06:30:36.184Z,97129.44
2023-03-13T06:33:10.639Z,97141.69
2023-03-13T06:35:55.940Z,97143.44
2023-03-13T06:38:29.917Z,97130.28
2023-03-13T06:41:03.200Z,97138.56
2023-03-13T06:43:36.270Z,97139.59
2023-03-13T06:46:10.052Z,97136.25
2023-03-13T06:48:46.274Z,97133.09
2023-03-13T06:51:22.185Z,97130.88
2023-03-13T06:53:55.220Z,97124.72
2023-03-13T06:56:28.285Z,97121.69
2023-03-13T06:59:01.306Z,97118.69
2023-03-13T07:01:34.404Z,97123.69
2023-03-13T07:04:12.267Z,97125.03
2023-03-13T07:06:45.352Z,97132.38
2023-03-13T07:09:20.016Z,97137.09
2023-03-13T07:11:53.045Z,97138.41
2023-03-13T07:14:26.294Z,97137.72
2023-03-13T07:17:00.887Z,97145.34
2023-03-13T07:19:35.311Z,97148.38
2023-03-13T07:22:08.354Z,97148.53
2023-03-13T07:24:41.427Z,97156.16
2023-03-13T07:27:14.556Z,97153.63
2023-03-13T07:29:47.600Z,97164.69
2023-03-13T07:32:20.659Z,97164.13
2023-03-13T07:34:55.088Z,97168.91
2023-03-13T07:37:28.165Z,97165.84
2023-03-13T07:40:01.190Z,97153.13
2023-03-13T07:42:34.293Z,97155.75
2023-03-13T07:45:08.876Z,97139.94
2023-03-13T07:47:41.908Z,97140.56
2023-03-13T07:50:16.570Z,97137.75
2023-03-13T07:52:49.636Z,97143.34
2023-03-13T07:55:22.716Z,97134.41
2023-03-13T07:57:55.706Z,97134.19
2023-03-13T08:00:28.936Z,97137.84
2023-03-13T08:03:02.138Z,97133.56
2023-03-13T08:05:36.548Z,97124.41
2023-03-13T08:08:10.284Z,97126.31
2023-03-13T08:10:43.408Z,97119.94
2023-03-13T08:13:16.588Z,97123.72
2023-03-13T08:15:49.566Z,97116.31
2023-03-13T08:18:22.555Z,97108.59
2023-03-13T08:20:57.236Z,97100.97
2023-03-13T08:23:30.390Z,97095.97
2023-03-13T08:26:06.102Z,97087.63
2023-03-13T08:28:40.484Z,97089.13
2023-03-13T08:31:16.038Z,97083.38
2023-03-13T08:33:49.839Z,97068.75
2023-03-13T08:36:26.458Z,97059.81
2023-03-13T08:39:01.882Z,97072.41
2023-03-13T08:41:37.513Z,97059.75
2023-03-13T08:44:13.652Z,97041.81
2023-03-13T08:46:48.003Z,97032.50
2023-03-13T08:49:21.177Z,97035.16
2023-03-13T08:51:56.690Z,97040.13
2023-03-13T08:54:29.731Z,97056.69
2023-03-13T08:57:02.860Z,97052.78
2023-03-13T08:59:35.821Z,97052.06
2023-03-13T09:02:10.572Z,97043.72
2023-03-13T09:04:43.573Z,97024.22
2023-03-13T09:07:18.007Z,97028.50
2023-03-13T09:09:51.212Z,97040.06
2023-03-13T09:12:30.673Z,97035.78
2023-03-13T09:15:05.127Z,97037.75
2023-03-13T09:17:38.201Z,97036.97
2023-03-13T09:20:12.762Z,97034.66
2023-03-13T09:22:47.201Z,97034.81
2023-03-13T09:25:20.179Z,97038.13
2023-03-13T09:27:53.232Z,97030.44
2023-03-13T09:30:26.320Z,97032.31
2023-03-13T09:32:59.378Z,97030.00
2023-03-13T09:35:32.573Z,97027.31
2023-03-13T09:38:07.280Z,97031.97
2023-03-13T09:40:59.842Z,97032.13
2023-03-13T09:43:46.452Z,97031.28
2023-03-13T09:46:25.271Z,97032.13
2023-03-13T09:49:02.283Z,97023.69
2023-03-13T09:51:41.118Z,97027.44
2023-03-13T09:54:26.100Z,97026.31
2023-03-13T09:57:05.247Z,97036.78
2023-03-13T09:59:48.381Z,97038.50
2023-03-13T10:02:33.824Z,97040.03
2023-03-13T10:05:15.938Z,97051.50
2023-03-13T10:07:49.830Z,97046.50
2023-03-13T10:10:36.531Z,97031.88
2023-03-13T10:13:21.343Z,97036.00
2023-03-13T10:15:58.032Z,97041.13
2023-03-13T10:18:31.128Z,97041.22
2023-03-13T10:21:18.387Z,97046.34
2023-03-13T10:23:57.082Z,97031.72
2023-03-13T10:26:36.411Z,97012.31
2023-03-13T10:29:22.750Z,97010.63
2023-03-13T10:32:01.451Z,96995.47
2023-03-13T10:34:51.826Z,97000.81
2023-03-13T10:37:28.890Z,97005.34
2023-03-13T10:40:15.439Z,96991.53
2023-03-13T10:42:50.394Z,96990.91
2023-03-13T10:45:25.566Z,96978.25
2023-03-13T10:48:03.089Z,96970.63
2023-03-13T10:50:36.769Z,96962.41
2023-03-13T10:53:25.254Z,96954.31
2023-03-13T10:56:07.160Z,96946.78
2023-03-13T10:58:46.071Z,96940.09
2023-03-13T11:01:23.118Z,96933.41
2023-03-13T11:03:58.400Z,96931.97
2023-03-13T11:06:33.785Z,96933.00
2023-03-13T11:09:14.930Z,96918.41
2023-03-13T11:11:51.570Z,96908.78
2023-03-13T11:14:27.833Z,96908.94
2023-03-13T11:17:06.408Z,96908.03
2023-03-13T11:20:20.794Z,96906.50
2023-03-13T11:23:06.537Z,96901.47
2023-03-13T11:25:45.538Z,96901.50
2023-03-13T11:28:31.430Z,96900.13
2023-03-13T11:31:14.585Z,96889.19
2023-03-13T11:33:58.829Z,96893.69
2023-03-13T11:36:37.681Z,96885.03
2023-03-13T11:39:42.949Z,96894.41
2023-03-13T11:42:59.746Z,96880.56
2023-03-13T11:46:13.779Z,96873.84
2023-03-13T11:49:10.266Z,96862.75
2023-03-13T11:51:57.678Z,96854.19
2023-03-13T11:54:52.398Z,96856.94
2023-03-13T11:57:30.828Z,96842.22
2023-03-13T12:00:30.829Z,96833.47
2023-03-13T12:03:14.207Z,96832.56
2023-03-13T12:05:53.543Z,96823.91
2023-03-13T12:08:31.382Z,96829.22
2023-03-13T12:11:15.881Z,96813.75
2023-03-13T12:13:56.605Z,96802.72
2023-03-13T12:16:42.954Z,96792.34
2023-03-13T12:19:27.151Z,96782.84
2023-03-13T12:22:13.255Z,96782.00
2023-03-13T12:24:53.367Z,96767.31
2023-03-13T12:27:32.966Z,96759.59
2023-03-13T12:30:20.680Z,96755.31
2023-03-13T12:33:03.526Z,96749.28
2023-03-13T12:35:40.319Z,96755.41
2023-03-13T12:38:18.753Z,96739.09
2023-03-13T12:41:02.956Z,96727.88
2023-03-13T12:43:40.945Z,96718.44
2023-03-13T12:46:34.937Z,96708.94
2023-03-13T12:49:39.111Z,96694.28
2023-03-13T12:52:40.062Z,96695.09
2023-03-13T12:55:47.520Z,96683.94
2023-03-13T12:58:46.085Z,96676.16
2023-03-13T13:01:32.632Z,96678.72
2023-03-13T13:04:08.591Z,96676.16
2023-03-13T13:06:59.460Z,96663.19
2023-03-13T13:09:37.123Z,96647.63
2023-03-13T13:12:21.660Z,96651.06
2023-03-13T13:15:06.463Z,96632.94
2023-03-13T13:17:52.541Z,96619.13
2023-03-13T13:20:38.927Z,96619.16
2023-03-13T13:23:36.748Z,96604.44
2023-03-13T13:26:51.120Z,96599.28
2023-03-13T13:29:57.714Z,96598.41
2023-03-13T13:32:47.645Z,96588.97
2023-03-13T13:35:28.572Z,96575.94
2023-03-13T13:38:34.413Z,96570.81
2023-03-13T13:41:37.782Z,96561.31
2023-03-13T13:44:33.855Z,96553.53
2023-03-13T13:47:25.776Z,96546.59
2023-03-13T13:50:01.069Z,96548.31
2023-03-13T13:52:37.747Z,96539.66
2023-03-13T13:55:40.572Z,96537.09
2023-03-13T13:58:19.815Z,96525.88
2023-03-13T14:00:59.320Z,96524.97
2023-03-13T14:03:36.656Z,96521.53
2023-03-13T14:06:19.808Z,96514.59
2023-03-13T14:08:57.625Z,96498.16
2023-03-13T14:11:38.105Z,96493.84
2023-03-13T14:14:17.269Z,96487.75
2023-03-13T14:16:53.646Z,96486.88
2023-03-13T14:19:30.499Z,96485.09
2023-03-13T14:22:06.339Z,96476.44
2023-03-13T14:24:39.514Z,96480.78
2023-03-13T14:27:21.985Z,96471.25
2023-03-13T14:30:02.208Z,96461.72
2023-03-13T14:32:36.990Z,96459.13
2023-03-13T14:35:15.770Z,96454.78
2023-03-13T14:37:50.937Z,96454.84
2023-03-13T14:40:29.869Z,96447.94
2023-03-13T14:43:05.069Z,96440.16
2023-03-13T14:45:39.100Z,96434.09
2023-03-13T14:48:23.032Z,96424.56
2023-03-13T14:51:14.856Z,96415.84
2023-03-13T14:53:56.647Z,96412.34
2023-03-13T14:56:36.231Z,96410.50
2023-03-13T14:59:17.332Z,96395.63
2023-03-13T15:02:01.014Z,96381.03
2023-03-13T15:04:59.660Z,96384.53
2023-03-13T15:07:40.664Z,96364.59
2023-03-13T15:10:21.898Z,96356.72
2023-03-13T15:12:55.035Z,96355.03
2023-03-13T15:15:28.094Z,96350.66
2023-03-13T15:18:01.147Z,96339.31
2023-03-13T15:20:35.764Z,96333.34
2023-03-13T15:23:12.464Z,96330.75
2023-03-13T15:25:45.629Z,96332.59
2023-03-13T15:28:22.075Z,96328.28
2023-03-13T15:30:55.106Z,96308.38
2023-03-13T15:33:31.277Z,96313.63
2023-03-13T15:36:07.022Z,96291.91
2023-03-13T15:38:41.000Z,96291.06
2023-03-13T15:41:13.994Z,96281.59
2023-03-13T15:43:47.205Z,96273.63
2023-03-13T15:46:21.332Z,96266.81
2023-03-13T15:48:54.632Z,96257.41
2023-03-13T15:51:29.089Z,96248.66
2023-03-13T15:54:02.120Z,96245.28
2023-03-13T15:56:38.136Z,96257.59
2023-03-13T15:59:13.111Z,96242.88
2023-03-13T16:01:46.171Z,96240.47
2023-03-13T16:04:19.299Z,96240.47
2023-03-13T16:06:53.743Z,96238.81
2023-03-13T16:09:27.230Z,96240.50
2023-03-13T16:12:00.265Z,96232.75
2023-03-13T16:14:33.401Z,96236.25
2023-03-13T16:17:15.260Z,96235.38
2023-03-13T16:19:49.035Z,96234.59
2023-03-13T16:22:23.418Z,96229.47
2023-03-13T16:24:56.536Z,96226.00
2023-03-13T16:27:30.045Z,96221.69
2023-03-13T16:30:04.224Z,96202.72
2023-03-13T16:32:37.430Z,96197.50
2023-03-13T16:35:10.648Z,96196.78
2023-03-13T16:37:45.397Z,96189.78
2023-03-13T16:40:21.255Z,96189.00
2023-03-13T16:42:54.348Z,96176.88
2023-03-13T16:45:28.340Z,96184.66
2023-03-13T16:48:01.420Z,96173.47
2023-03-13T16:50:37.576Z,96174.38
2023-03-13T16:53:11.960Z,96181.31
2023-03-13T16:55:44.949Z,96184.78
2023-03-13T16:58:18.626Z,96172.78
2023-03-13T17:01:04.793Z,96174.50
2023-03-13T17:03:38.590Z,96164.16
2023-03-13T17:06:17.696Z,96162.44
2023-03-13T17:08:52.463Z,96166.78
2023-03-13T17:11:26.504Z,96147.81
2023-03-13T17:13:59.590Z,96155.59
2023-03-13T17:16:35.536Z,96153.00
2023-03-13T17:19:08.741Z,96138.34
2023-03-13T17:21:41.852Z,96127.94
2023-03-13T17:24:16.345Z,96132.28
2023-03-13T17:26:49.796Z,96136.59
2023-03-13T17:29:23.708Z,96120.19
2023-03-13T17:31:56.947Z,96122.75
2023-03-13T17:34:31.313Z,96118.44
2023-03-13T17:37:06.103Z,96121.03
2023-03-13T17:39:40.535Z,96117.59
2023-03-13T17:42:13.826Z,96102.97
2023-03-13T17:44:46.977Z,96094.34
2023-03-13T17:47:25.109Z,96109.84
2023-03-13T17:49:58.246Z,96095.22
2023-03-13T17:52:31.444Z,96082.28
2023-03-13T17:55:07.774Z,96081.41
2023-03-13T17:57:41.790Z,96075.38
2023-03-13T18:00:22.988Z,96074.53
2023-03-13T18:02:56.236Z,96064.22
2023-03-13T18:05:29.579Z,96057.28
2023-03-13T18:08:02.613Z,96050.41
2023-03-13T18:10:36.970Z,96053.00
2023-03-13T18:13:10.073Z,96047.81
2023-03-13T18:15:43.454Z,96040.06
2023-03-13T18:18:18.125Z,96032.31
2023-03-13T18:20:51.693Z,96020.25
2023-03-13T18:23:24.773Z,96024.59
2023-03-13T18:25:59.216Z,96018.50
2023-03-13T18:28:32.243Z,96015.91
2023-03-13T18:31:05.884Z,96000.44
2023-03-13T18:33:41.661Z,96002.19
2023-03-13T18:36:19.932Z,95988.41
2023-03-13T18:38:53.599Z,95979.81
2023-03-13T18:41:29.238Z,95969.44
2023-03-13T18:44:02.631Z,95978.03
2023-03-13T18:46:35.651Z,95983.13
2023-03-13T18:49:17.076Z,95977.13
2023-03-13T18:51:51.944Z,95947.00
2023-03-13T18:54:24.959Z,95944.41
2023-03-13T18:56:59.476Z,95933.19
2023-03-13T18:59:32.544Z,95916.84
2023-03-13T19:02:07.619Z,95928.91
2023-03-13T19:04:40.745Z,96001.91
2023-03-13T19:07:17.663Z,96120.50
2023-03-13T19:09:50.781Z,96211.81
2023-03-13T19:12:25.178Z,96274.41
2023-03-13T19:14:58.366Z,96308.53
2023-03-13T19:17:32.304Z,96315.91
2023-03-13T19:20:06.793Z,96294.53
2023-03-13T19:22:39.826Z,96266.22
2023-03-13T19:25:16.315Z,96165.53
2023-03-13T19:27:50.714Z,96206.16
2023-03-13T19:30:26.611Z,96167.56
2023-03-13T19:32:59.704Z,96116.91
2023-03-13T19:35:32.766Z,96104.66
2023-03-13T19:38:06.263Z,96122.47
2023-03-13T19:40:39.231Z,96113.88
2023-03-13T19:43:13.579Z,96107.91
2023-03-13T19:45:47.802Z,96131.59
2023-03-13T19:48:20.861Z,96166.56
2023-03-13T19:50:54.017Z,96175.16
2023-03-13T19:53:26.986Z,96164.84
2023-03-13T19:56:00.031Z,96153.69
2023-03-13T19:58:34.474Z,96181.72
2023-03-13T20:01:16.685Z,96174.13
2023-03-13T20:03:50.481Z,96212.81
2023-03-13T20:06:26.929Z,96194.56
2023-03-13T20:09:02.317Z,96206.38
2023-03-13T20:11:35.674Z,96225.19
2023-03-13T20:14:10.615Z,96243.16
2023-03-13T20:16:45.427Z,96219.22
2023-03-13T20:19:18.580Z,96262.78
2023-03-13T20:21:52.373Z,96302.03
2023-03-13T20:24:25.527Z,96359.22
2023-03-13T20:26:58.687Z,96395.94
2023-03-13T20:29:33.840Z,96400.84
2023-03-13T20:32:07.280Z,96415.34
2023-03-13T20:34:40.676Z,96416.63
2023-03-13T20:37:14.251Z,96408.66
2023-03-13T20:39:47.365Z,96433.56
2023-03-13T20:42:20.933Z,96451.47
2023-03-13T20:44:55.882Z,96450.53
2023-03-13T20:47:29.026Z,96495.16
2023-03-13T20:50:02.121Z,96546.06
2023-03-13T20:52:35.143Z,96560.16
2023-03-13T20:55:09.371Z,96534.56
2023-03-13T20:57:42.423Z,96556.56
2023-03-13T21:00:17.920Z,96569.88
2023-03-13T21:02:51.254Z,96559.53
2023-03-13T21:05:24.308Z,96544.69
2023-03-13T21:07:57.501Z,96554.75
2023-03-13T21:10:30.498Z,96544.75
2023-03-13T21:13:04.120Z,96521.22
2023-03-13T21:15:40.445Z,96516.00
2023-03-13T21:18:13.491Z,96521.97
2023-03-13T21:20:46.993Z,96527.41
2023-03-13T21:23:20.242Z,96533.56
2023-03-13T21:25:56.268Z,96542.03
2023-03-13T21:28:29.953Z,96549.53
2023-03-13T21:31:12.073Z,96552.94
2023-03-13T21:33:46.749Z,96557.22
2023-03-13T21:36:22.479Z,96550.41
2023-03-13T21:38:55.544Z,96549.56
2023-03-13T21:41:28.577Z,96536.81
2023-03-13T21:44:01.725Z,96525.69
2023-03-13T21:46:36.117Z,96533.97
2023-03-13T21:49:09.220Z,96533.81
2023-03-13T21:51:42.217Z,96541.31
2023-03-13T21:54:15.270Z,96533.59
2023-03-13T21:56:48.305Z,96515.78
2023-03-13T21:59:25.098Z,96486.03
2023-03-13T22:01:59.661Z,96447.78
2023-03-13T22:04:32.711Z,96432.72
2023-03-13T22:07:06.256Z,96471.59
2023-03-13T22:09:39.376Z,96463.91
2023-03-13T22:12:12.384Z,96452.28
2023-03-13T22:14:45.490Z,96439.63
2023-03-13T22:17:20.351Z,96425.72
2023-03-13T22:19:53.375Z,96410.41
2023-03-13T22:22:27.265Z,96393.91
2023-03-13T22:25:00.268Z,96349.19
2023-03-13T22:27:33.325Z,96357.66
2023-03-13T22:30:08.450Z,96366.28
2023-03-13T22:32:42.987Z,96342.75
2023-03-13T22:35:16.424Z,96335.75
2023-03-13T22:37:49.637Z,96330.44
2023-03-13T22:40:22.657Z,96310.41
2023-03-13T22:42:55.740Z,96321.56
2023-03-13T22:45:30.466Z,96330.00
2023-03-13T22:48:06.608Z,96312.56
2023-03-13T22:50:39.652Z,96321.44
2023-03-13T22:53:13.177Z,96307.84
2023-03-13T22:55:46.261Z,96291.59
2023-03-13T22:58:19.337Z,96288.81
2023-03-13T23:00:52.437Z,96281.09
2023-03-13T23:03:26.902Z,96277.59
2023-03-13T23:05:59.915Z,96293.94
2023-03-13T23:08:32.945Z,96301.69
2023-03-13T23:11:06.919Z,96314.31
2023-03-13T23:13:40.247Z,96312.47
2023-03-13T23:16:14.761Z,96311.59
2023-03-13T23:18:49.219Z,96314.88
2023-03-13T23:21:22.512Z,96315.75
2023-03-13T23:23:55.703Z,96327.00
2023-03-13T23:26:28.720Z,96342.75
2023-03-13T23:29:01.780Z,96359.28
2023-03-13T23:31:34.862Z,96364.69
2023-03-13T23:34:09.184Z,96363.44
2023-03-13T23:36:42.174Z,96384.38
2023-03-13T23:39:15.155Z,96403.06
2023-03-13T23:41:48.206Z,96419.44
2023-03-13T23:44:21.241Z,96449.28
2023-03-13T23:46:54.251Z,96455.50
2023-03-13T23:49:28.627Z,96445.84
2023-03-13T23:52:01.973Z,96423.00
2023-03-13T23:54:35.261Z,96399.69
2023-03-13T23:57:08.341Z,96352.28
2023-03-13T23:59:41.352Z,96378.31
